Time;durP1;ratioP1;P1;durP2;ratioP2;P2;SDS_P1;SDS_P2;PMS_P1;PMS_P2;Temp;Humidity;BMP_temperature;BMP_pressure;BME280_temperature;BME280_humidity;BME280_pressure;Samples;Min_cycle;Max_cycle;Signal;HPM_P1;HPM_P2
2023/05/14 00:01:06;;;;;;;30.70;27.65;;;10.50;99.90;;;;;;5021630;28;20116;-77
2023/05/14 00:03:31;;;;;;;28.98;26.02;;;10.40;99.90;;;;;;5013744;28;20037;-77
2023/05/14 00:05:57;;;;;;;27.20;24.75;;;10.30;99.90;;;;;;5008744;28;20061;-77
2023/05/14 00:08:22;;;;;;;30.70;27.75;;;10.40;99.90;;;;;;5012524;28;20041;-76
2023/05/14 00:10:48;;;;;;;27.98;25.38;;;10.30;99.90;;;;;;5001177;28;20153;-77
2023/05/14 00:13:13;;;;;;;29.48;26.85;;;10.30;99.90;;;;;;5019230;28;20037;-77
2023/05/14 00:15:39;;;;;;;31.48;28.35;;;10.40;99.90;;;;;;5026527;28;20044;-77
2023/05/14 00:18:05;;;;;;;29.23;26.50;;;10.40;99.90;;;;;;5017797;28;20381;-77
2023/05/14 00:20:31;;;;;;;28.15;25.65;;;10.40;99.90;;;;;;5025077;28;20113;-77
2023/05/14 00:22:57;;;;;;;29.20;26.25;;;10.40;99.90;;;;;;5009984;28;20137;-76
2023/05/14 00:25:22;;;;;;;29.02;26.42;;;10.30;99.90;;;;;;5011623;28;20136;-76
2023/05/14 00:27:48;;;;;;;31.63;28.63;;;10.30;99.90;;;;;;5021513;28;20475;-76
2023/05/14 00:30:13;;;;;;;33.42;30.02;;;10.30;99.90;;;;;;5019463;28;20041;-77
2023/05/14 00:32:39;;;;;;;29.00;26.60;;;10.30;99.90;;;;;;5016912;28;20419;-76
2023/05/14 00:35:05;;;;;;;29.33;26.65;;;10.30;99.90;;;;;;5013979;28;20033;-76
2023/05/14 00:37:30;;;;;;;29.90;27.10;;;10.30;99.90;;;;;;5003822;28;20395;-77
2023/05/14 00:39:57;;;;;;;29.10;26.20;;;10.30;99.90;;;;;;5022405;28;20045;-77
2023/05/14 00:42:22;;;;;;;28.63;25.70;;;10.20;99.90;;;;;;5028034;28;20055;-76
2023/05/14 00:44:48;;;;;;;34.28;31.13;;;10.20;99.90;;;;;;5017187;28;20033;-77
2023/05/14 00:47:14;;;;;;;35.17;31.95;;;10.20;99.90;;;;;;5022832;28;20438;-76
2023/05/14 00:49:41;;;;;;;34.08;30.85;;;10.10;99.90;;;;;;5004314;28;20206;-76
2023/05/14 00:52:07;;;;;;;30.90;27.98;;;10.10;99.90;;;;;;5025695;28;20439;-76
2023/05/14 00:54:33;;;;;;;31.10;28.42;;;10.10;99.90;;;;;;5033798;28;20088;-76
2023/05/14 00:56:59;;;;;;;36.40;33.03;;;10.00;99.90;;;;;;5008491;28;20046;-77
2023/05/14 00:59:25;;;;;;;36.83;33.45;;;10.00;99.90;;;;;;5018411;28;20037;-76
2023/05/14 01:01:51;;;;;;;30.83;28.23;;;10.00;99.90;;;;;;5021610;28;20038;-76
2023/05/14 01:04:17;;;;;;;39.30;35.17;;;9.90;99.90;;;;;;5013742;28;20555;-77
2023/05/14 01:06:51;;;;;;;34.92;31.67;;;9.90;99.90;;;;;;5012844;28;20080;-77
2023/05/14 01:09:17;;;;;;;32.58;29.63;;;9.80;99.90;;;;;;5023751;28;20033;-77
2023/05/14 01:12:10;;;;;;;34.17;31.05;;;9.80;99.90;;;;;;5015218;28;20033;-77
2023/05/14 01:14:54;;;;;;;34.55;31.52;;;9.80;99.90;;;;;;5013885;28;20165;-77
2023/05/14 01:17:21;;;;;;;40.45;36.38;;;9.70;99.90;;;;;;5009466;28;20048;-76
2023/05/14 01:19:48;;;;;;;38.05;34.25;;;9.60;99.90;;;;;;5002620;28;20040;-77
2023/05/14 01:22:13;;;;;;;42.08;37.72;;;9.50;99.90;;;;;;5025936;28;20492;-77
2023/05/14 01:24:39;;;;;;;36.08;32.53;;;9.50;99.90;;;;;;4997261;28;20038;-76
2023/05/14 01:27:09;;;;;;;40.30;36.08;;;9.40;99.90;;;;;;4998218;28;20064;-77
2023/05/14 01:29:41;;;;;;;32.65;29.65;;;9.40;99.90;;;;;;5017201;28;20100;-76
2023/05/14 01:32:08;;;;;;;32.35;29.38;;;9.30;99.90;;;;;;5013161;28;20046;-78
2023/05/14 01:34:35;;;;;;;39.72;35.75;;;9.30;99.90;;;;;;5007693;28;20117;-77
2023/05/14 01:37:02;;;;;;;44.10;39.35;;;9.20;99.90;;;;;;5017949;28;20562;-76
2023/05/14 01:39:31;;;;;;;36.72;33.28;;;9.20;99.90;;;;;;5001547;28;20384;-76
2023/05/14 01:41:57;;;;;;;42.00;37.78;;;9.10;99.90;;;;;;4994334;28;20038;-76
2023/05/14 01:44:23;;;;;;;36.17;32.47;;;9.10;99.90;;;;;;5012745;28;20046;-76
2023/05/14 01:46:49;;;;;;;42.38;37.85;;;9.00;99.90;;;;;;5011300;28;20042;-76
2023/05/14 01:49:16;;;;;;;34.83;31.40;;;9.00;99.90;;;;;;5014061;28;20038;-76
2023/05/14 01:51:42;;;;;;;40.70;36.67;;;8.90;99.90;;;;;;4992397;28;20512;-77
2023/05/14 01:54:08;;;;;;;35.22;31.88;;;8.80;99.90;;;;;;5012794;28;20030;-77
2023/05/14 01:56:33;;;;;;;37.55;33.85;;;8.80;99.90;;;;;;5011535;28;20069;-76
2023/05/14 01:58:59;;;;;;;39.78;35.95;;;8.70;99.90;;;;;;5015710;28;20049;-76
2023/05/14 02:01:25;;;;;;;38.80;35.20;;;8.70;99.90;;;;;;5017660;28;20038;-76
2023/05/14 02:03:50;;;;;;;34.83;31.63;;;8.70;99.90;;;;;;5012421;28;20033;-77
2023/05/14 02:06:16;;;;;;;42.25;38.10;;;8.60;99.90;;;;;;5013277;28;20033;-77
2023/05/14 02:08:41;;;;;;;37.28;33.63;;;8.60;99.90;;;;;;5036462;28;20069;-77
2023/05/14 02:11:07;;;;;;;43.53;39.20;;;8.60;99.90;;;;;;5023807;28;20037;-76
2023/05/14 02:13:32;;;;;;;35.50;32.42;;;8.50;99.90;;;;;;5015468;28;20420;-77
2023/05/14 02:15:58;;;;;;;36.33;32.92;;;8.50;99.90;;;;;;5023351;28;20128;-77
2023/05/14 02:18:23;;;;;;;39.35;35.67;;;8.50;99.90;;;;;;5017815;28;20034;-76
2023/05/14 02:20:49;;;;;;;47.58;42.40;;;8.50;99.90;;;;;;5029689;28;20033;-76
2023/05/14 02:23:15;;;;;;;40.78;36.90;;;8.40;99.90;;;;;;5031851;28;20330;-76
2023/05/14 02:25:40;;;;;;;43.53;38.97;;;8.40;99.90;;;;;;5031750;28;20069;-76
2023/05/14 02:28:06;;;;;;;36.65;33.25;;;8.40;99.90;;;;;;5022415;28;20041;-76
2023/05/14 02:30:31;;;;;;;37.28;33.90;;;8.40;99.90;;;;;;5013850;28;20038;-76
2023/05/14 02:32:57;;;;;;;41.80;37.60;;;8.40;99.90;;;;;;5013483;28;20038;-77
2023/05/14 02:35:23;;;;;;;37.38;33.78;;;8.40;99.90;;;;;;5023286;28;20041;-77
2023/05/14 02:37:48;;;;;;;39.47;35.65;;;8.30;99.90;;;;;;5022419;28;20042;-77
2023/05/14 02:40:14;;;;;;;43.13;38.88;;;8.30;99.90;;;;;;5024450;28;20065;-76
2023/05/14 02:42:40;;;;;;;45.45;40.70;;;8.30;99.90;;;;;;5003895;28;20034;-77
2023/05/14 02:45:06;;;;;;;39.08;35.30;;;8.20;99.90;;;;;;5003532;28;20041;-77
2023/05/14 02:47:31;;;;;;;36.08;32.60;;;8.20;99.90;;;;;;5000487;28;20100;-76
2023/05/14 02:49:57;;;;;;;34.30;31.25;;;8.20;99.90;;;;;;5013413;28;20052;-76
2023/05/14 02:52:22;;;;;;;40.10;36.35;;;8.10;99.90;;;;;;5011601;28;20475;-76
2023/05/14 02:54:48;;;;;;;58.78;44.25;;;8.10;99.90;;;;;;5011518;28;20046;-76
2023/05/14 02:57:14;;;;;;;41.80;37.33;;;8.10;99.90;;;;;;5009155;28;20041;-76
2023/05/14 02:59:39;;;;;;;59.78;49.38;;;8.10;99.90;;;;;;5020484;28;20030;-77
2023/05/14 03:02:05;;;;;;;57.85;49.70;;;8.00;99.90;;;;;;5010399;28;20089;-76
2023/05/14 03:04:30;;;;;;;63.92;53.58;;;8.10;99.90;;;;;;5014624;28;20073;-77
2023/05/14 03:06:56;;;;;;;52.72;46.95;;;8.10;99.90;;;;;;5019179;28;20143;-77
2023/05/14 03:09:22;;;;;;;63.38;50.75;;;8.20;99.90;;;;;;5035842;28;20045;-77
2023/05/14 03:11:49;;;;;;;53.22;46.22;;;8.20;99.90;;;;;;5011074;28;20065;-76
2023/05/14 03:14:14;;;;;;;49.72;44.25;;;8.20;99.90;;;;;;4995221;28;20509;-76
2023/05/14 03:16:41;;;;;;;76.43;54.45;;;8.20;99.90;;;;;;5007244;28;20047;-77
2023/05/14 03:19:16;;;;;;;58.72;50.22;;;8.20;99.90;;;;;;5060659;22;20090;-77
2023/05/14 03:21:49;;;;;;;63.85;49.97;;;8.30;99.90;;;;;;5033381;28;20032;-77
2023/05/14 03:24:23;;;;;;;52.80;44.58;;;8.40;99.90;;;;;;5028824;28;20049;-77
2023/05/14 03:26:55;;;;;;;43.03;38.65;;;8.40;99.90;;;;;;5021420;28;20041;-77
2023/05/14 03:29:27;;;;;;;57.55;47.97;;;8.40;99.90;;;;;;5045573;28;20036;-77
2023/05/14 03:31:56;;;;;;;46.72;41.72;;;8.40;99.90;;;;;;5041125;28;20439;-77
2023/05/14 03:34:31;;;;;;;43.05;38.50;;;8.30;99.90;;;;;;5027633;28;20132;-77
2023/05/14 03:36:58;;;;;;;40.45;36.42;;;8.30;99.90;;;;;;5023127;28;20048;-78
2023/05/14 03:39:30;;;;;;;41.13;37.03;;;8.30;99.90;;;;;;5046078;28;20127;-77
2023/05/14 03:42:02;;;;;;;37.92;34.25;;;8.30;99.90;;;;;;5053701;28;20578;-77
2023/05/14 03:44:53;;;;;;;;;;;;;;;;;;;;;
2023/05/14 03:47:31;;;;;;;42.97;38.50;;;8.30;99.90;;;;;;5053644;28;20043;-77
2023/05/14 03:50:03;;;;;;;38.58;34.78;;;8.20;99.90;;;;;;5041003;28;20120;-77
2023/05/14 03:52:36;;;;;;;38.88;34.88;;;8.20;99.90;;;;;;5038396;28;20132;-80
2023/05/14 03:55:06;;;;;;;35.22;32.00;;;8.20;99.90;;;;;;5041382;28;20043;-80
2023/05/14 03:57:35;;;;;;;41.75;37.35;;;8.20;99.90;;;;;;5045429;28;20123;-78
2023/05/14 04:00:20;;;;;;;38.47;34.58;;;8.10;99.90;;;;;;5049188;28;20072;-77
2023/05/14 04:02:55;;;;;;;38.88;35.03;;;8.10;99.90;;;;;;5038527;28;20024;-77
2023/05/14 04:05:28;;;;;;;39.05;35.08;;;8.20;99.90;;;;;;5040740;28;20033;-77
2023/05/14 04:07:57;;;;;;;37.63;34.05;;;8.10;99.90;;;;;;5046110;28;20494;-77
2023/05/14 04:10:23;;;;;;;37.33;33.65;;;8.20;99.90;;;;;;5052607;28;20057;-77
2023/05/14 04:12:50;;;;;;;46.17;38.17;;;8.20;99.90;;;;;;5042682;28;20037;-77
2023/05/14 04:15:34;;;;;;;45.20;40.35;;;8.10;99.90;;;;;;5040553;28;20499;-77
2023/05/14 04:18:03;;;;;;;38.22;34.38;;;8.20;99.90;;;;;;5038838;28;20043;-77
2023/05/14 04:20:37;;;;;;;46.05;37.60;;;8.20;99.90;;;;;;5054420;28;20094;-77
2023/05/14 04:23:04;;;;;;;43.47;38.85;;;8.30;99.90;;;;;;5060065;28;20399;-77
2023/05/14 04:25:32;;;;;;;36.58;33.10;;;8.30;99.90;;;;;;5053842;28;20060;-77
2023/05/14 04:27:58;;;;;;;42.97;38.38;;;8.40;99.90;;;;;;5037864;28;20050;-77
2023/05/14 04:30:28;;;;;;;43.05;38.53;;;8.40;99.90;;;;;;5039925;28;20091;-77
2023/05/14 04:33:03;;;;;;;42.10;37.58;;;8.50;99.90;;;;;;5039166;28;20037;-77
2023/05/14 04:35:30;;;;;;;37.88;34.25;;;8.60;99.90;;;;;;5049871;28;20028;-77
2023/05/14 04:37:59;;;;;;;49.13;41.08;;;8.70;99.90;;;;;;5034749;28;20077;-77
2023/05/14 04:40:30;;;;;;;44.22;39.35;;;8.70;99.90;;;;;;5029986;28;20493;-77
2023/05/14 04:42:59;;;;;;;37.83;33.88;;;8.90;99.90;;;;;;5038426;28;20051;-77
2023/05/14 04:45:34;;;;;;;41.95;37.63;;;9.00;99.90;;;;;;5033326;28;20041;-78
2023/05/14 04:48:01;;;;;;;46.03;38.90;;;9.20;99.90;;;;;;5055886;28;20080;-77
2023/05/14 04:50:33;;;;;;;40.08;35.72;;;9.30;99.90;;;;;;5039524;28;20040;-77
2023/05/14 04:53:05;;;;;;;47.42;40.05;;;9.30;99.90;;;;;;5037932;28;20045;-77
2023/05/14 04:55:38;;;;;;;46.22;38.83;;;9.30;99.90;;;;;;5039530;28;20033;-77
2023/05/14 04:58:07;;;;;;;37.05;33.38;;;9.40;99.90;;;;;;5046233;28;20040;-77
2023/05/14 05:00:38;;;;;;;50.00;40.00;;;9.40;99.90;;;;;;5054945;28;20566;-77
2023/05/14 05:03:05;;;;;;;45.03;36.63;;;9.40;99.90;;;;;;5042906;28;20037;-78
2023/05/14 05:05:34;;;;;;;40.45;35.13;;;9.50;99.90;;;;;;5021529;28;20041;-77
2023/05/14 05:08:14;;;;;;;35.05;31.70;;;9.70;99.90;;;;;;5025777;28;20036;-77
2023/05/14 05:10:45;;;;;;;32.70;29.58;;;9.90;99.90;;;;;;5026235;28;20036;-77
2023/05/14 05:13:16;;;;;;;33.47;30.25;;;10.20;99.90;;;;;;5043299;28;20115;-77
2023/05/14 05:15:45;;;;;;;33.13;29.50;;;10.60;99.90;;;;;;5041362;28;20043;-77
2023/05/14 05:18:19;;;;;;;31.55;28.33;;;11.00;99.90;;;;;;5025187;28;20116;-78
2023/05/14 05:20:45;;;;;;;29.50;26.77;;;11.10;99.90;;;;;;5035261;28;20032;-78
2023/05/14 05:23:13;;;;;;;38.58;30.55;;;11.10;99.90;;;;;;5047186;28;20375;-78
2023/05/14 05:25:40;;;;;;;40.35;32.90;;;11.10;99.90;;;;;;5023430;28;20084;-78
2023/05/14 05:28:06;;;;;;;35.10;30.50;;;11.10;99.90;;;;;;5036034;28;20487;-77
2023/05/14 05:30:35;;;;;;;34.00;30.25;;;11.10;99.90;;;;;;5030601;28;20064;-78
2023/05/14 05:33:01;;;;;;;33.55;30.13;;;11.10;99.90;;;;;;5032064;28;20051;-77
2023/05/14 05:35:29;;;;;;;34.50;30.77;;;11.10;99.90;;;;;;5048566;28;20498;-77
2023/05/14 05:37:56;;;;;;;34.35;29.38;;;11.10;99.90;;;;;;5055719;28;20425;-77
2023/05/14 05:40:22;;;;;;;33.55;30.05;;;11.10;99.90;;;;;;5063691;28;20029;-77
2023/05/14 05:42:53;;;;;;;41.08;33.92;;;11.20;99.90;;;;;;5042713;28;20036;-77
2023/05/14 05:45:32;;;;;;;33.20;29.90;;;11.30;99.90;;;;;;5057119;28;20376;-78
2023/05/14 05:48:04;;;;;;;36.83;30.23;;;11.30;99.90;;;;;;5050616;28;20042;-78
2023/05/14 05:50:33;;;;;;;33.10;29.17;;;11.40;99.90;;;;;;5033081;28;20051;-78
2023/05/14 05:52:59;;;;;;;35.17;31.52;;;11.40;99.90;;;;;;5044200;28;20045;-78
2023/05/14 05:55:36;;;;;;;40.55;32.75;;;11.30;99.90;;;;;;5049859;28;20111;-78
2023/05/14 05:58:02;;;;;;;34.30;31.00;;;11.30;99.90;;;;;;5055409;28;20040;-77
2023/05/14 06:00:32;;;;;;;35.90;32.13;;;11.30;99.90;;;;;;5033003;28;20095;-78
2023/05/14 06:03:01;;;;;;;38.00;33.20;;;11.30;99.90;;;;;;5037530;28;21007;-78
2023/05/14 06:05:31;;;;;;;43.35;36.38;;;11.30;99.90;;;;;;5032350;28;20499;-78
2023/05/14 06:08:04;;;;;;;46.95;38.67;;;11.30;99.90;;;;;;5035178;28;20110;-78
2023/05/14 06:10:36;;;;;;;39.83;35.45;;;11.30;99.90;;;;;;5036564;28;20436;-78
2023/05/14 06:13:11;;;;;;;37.33;33.75;;;11.40;99.90;;;;;;5029820;28;20068;-77
2023/05/14 06:15:42;;;;;;;36.75;32.85;;;11.60;99.90;;;;;;5034736;28;20073;-78
2023/05/14 06:18:08;;;;;;;39.28;33.90;;;11.80;99.90;;;;;;5022093;28;20045;-78
2023/05/14 06:20:33;;;;;;;33.95;30.52;;;12.00;99.90;;;;;;5030217;28;20028;-77
2023/05/14 06:22:59;;;;;;;35.47;32.03;;;12.10;99.90;;;;;;5029224;28;20041;-77
2023/05/14 06:25:25;;;;;;;34.58;31.00;;;12.10;99.90;;;;;;5023353;28;20079;-78
2023/05/14 06:27:56;;;;;;;33.72;30.23;;;12.10;99.90;;;;;;5041261;28;20045;-78
2023/05/14 06:30:22;;;;;;;34.55;31.05;;;12.20;99.90;;;;;;5026150;28;20104;-79
2023/05/14 06:33:05;;;;;;;34.65;31.05;;;12.20;99.90;;;;;;5034219;28;20052;-79
2023/05/14 06:35:34;;;;;;;33.53;30.10;;;12.20;99.90;;;;;;5044567;28;20388;-78
2023/05/14 06:38:09;;;;;;;33.00;29.65;;;12.40;99.90;;;;;;5033817;28;20049;-78
2023/05/14 06:40:50;;;;;;;34.10;30.65;;;12.40;99.90;;;;;;5035248;28;20586;-79
2023/05/14 06:43:54;;;;;;;32.63;29.58;;;12.50;99.90;;;;;;5047144;28;20051;-79
2023/05/14 06:47:32;;;;;;;31.45;28.40;;;12.70;99.90;;;;;;4986124;28;20046;-78
2023/05/14 06:50:24;;;;;;;30.42;27.45;;;12.80;99.90;;;;;;5031796;28;20095;-78
2023/05/14 06:53:17;;;;;;;31.95;28.85;;;12.90;99.90;;;;;;4993600;28;20050;-78
2023/05/14 06:56:11;;;;;;;27.63;24.70;;;13.20;99.90;;;;;;5026673;28;20053;-78
2023/05/14 07:02:14;;;;;;;;;;;13.60;99.90;;;;;;5035308;28;20135;-77
2023/05/14 07:04:51;;;;;;;26.70;23.88;;;13.70;99.90;;;;;;5050665;28;19916;-77
2023/05/14 07:07:23;;;;;;;26.02;23.52;;;13.90;99.90;;;;;;5034136;28;20033;-77
2023/05/14 07:09:51;;;;;;;25.17;22.58;;;14.10;99.90;;;;;;5033178;28;20041;-77
2023/05/14 07:12:26;;;;;;;24.48;22.02;;;14.20;99.90;;;;;;5033731;28;20045;-77
2023/05/14 07:14:57;;;;;;;24.70;22.17;;;14.40;99.90;;;;;;5020102;28;20041;-77
2023/05/14 07:17:36;;;;;;;24.02;21.77;;;14.40;99.90;;;;;;5034177;28;20048;-77
2023/05/14 07:20:23;;;;;;;19.25;17.02;;;14.50;99.90;;;;;;5033287;28;20053;-77
2023/05/14 07:22:55;;;;;;;20.13;17.88;;;14.80;99.90;;;;;;5031523;28;20510;-77
2023/05/14 07:25:31;;;;;;;20.67;18.58;;;14.80;99.90;;;;;;5030073;28;20044;-77
2023/05/14 07:28:04;;;;;;;21.80;19.50;;;14.80;99.90;;;;;;5014193;28;20479;-77
2023/05/14 07:30:36;;;;;;;21.63;19.33;;;14.90;99.90;;;;;;5015251;28;20077;-77
2023/05/14 07:33:05;;;;;;;18.42;16.55;;;15.00;99.90;;;;;;5014416;28;20049;-77
2023/05/14 07:35:46;;;;;;;20.55;17.02;;;15.20;99.90;;;;;;5015289;28;20451;-77
2023/05/14 07:38:18;;;;;;;19.90;17.60;;;15.20;99.90;;;;;;5018516;28;20037;-77
2023/05/14 07:40:54;;;;;;;19.52;17.48;;;15.10;99.90;;;;;;5034042;28;20041;-77
2023/05/14 07:43:31;;;;;;;19.58;16.25;;;15.10;99.90;;;;;;5034858;28;20094;-77
2023/05/14 07:46:13;;;;;;;19.02;17.00;;;15.20;99.90;;;;;;5034017;28;20506;-77
2023/05/14 07:48:42;;;;;;;19.35;16.20;;;15.30;99.90;;;;;;5034183;28;20570;-77
2023/05/14 07:51:27;;;;;;;17.77;15.88;;;15.50;99.90;;;;;;5036040;28;20043;-77
2023/05/14 07:54:01;;;;;;;18.42;16.15;;;15.50;99.90;;;;;;5032110;28;20121;-77
2023/05/14 07:56:30;;;;;;;19.00;14.88;;;15.70;99.90;;;;;;5033970;28;20075;-77
2023/05/14 07:58:59;;;;;;;17.13;15.23;;;15.80;99.90;;;;;;5028810;28;20073;-78
2023/05/14 08:01:25;;;;;;;16.55;13.82;;;15.90;99.90;;;;;;5036146;28;20496;-77
2023/05/14 08:03:59;;;;;;;17.52;14.68;;;16.00;99.90;;;;;;5015028;28;20048;-77
2023/05/14 08:06:30;;;;;;;16.15;14.23;;;16.10;99.90;;;;;;5027050;28;20067;-77
2023/05/14 08:08:56;;;;;;;19.23;15.43;;;16.20;99.90;;;;;;5050818;28;20051;-77
2023/05/14 08:11:25;;;;;;;15.25;13.75;;;16.60;99.90;;;;;;5048377;28;20056;-77
2023/05/14 08:13:56;;;;;;;17.33;11.77;;;17.20;99.90;;;;;;5053685;28;20151;-77
2023/05/14 08:16:23;;;;;;;13.68;12.13;;;17.80;99.90;;;;;;5070254;28;20117;-77
2023/05/14 08:18:52;;;;;;;16.65;11.82;;;18.50;99.90;;;;;;5032203;28;20307;-77
2023/05/14 08:21:26;;;;;;;13.00;11.27;;;18.80;99.90;;;;;;5039284;28;20384;-77
2023/05/14 08:24:03;;;;;;;15.98;9.98;;;19.00;99.90;;;;;;5043660;28;20041;-77
2023/05/14 08:26:29;;;;;;;15.70;9.88;;;19.50;99.90;;;;;;5045460;28;20028;-77
2023/05/14 08:28:58;;;;;;;11.75;9.15;;;20.00;99.90;;;;;;5034150;28;20049;-79
2023/05/14 08:31:27;;;;;;;11.90;9.73;;;20.40;99.90;;;;;;5038915;28;20044;-77
2023/05/14 08:33:52;;;;;;;10.38;8.88;;;20.70;99.90;;;;;;5033186;28;20499;-76
2023/05/14 08:36:18;;;;;;;11.73;8.70;;;21.50;99.90;;;;;;5029567;28;20037;-77
2023/05/14 08:38:53;;;;;;;12.40;8.55;;;22.00;99.90;;;;;;5037517;28;20492;-77
2023/05/14 08:41:22;;;;;;;11.85;8.35;;;22.40;99.90;;;;;;5012979;28;20049;-77
2023/05/14 08:44:12;;;;;;;10.77;7.80;;;22.70;99.90;;;;;;5023920;28;20079;-77
2023/05/14 08:46:39;;;;;;;11.02;7.60;;;23.30;99.90;;;;;;5051366;28;20045;-77
2023/05/14 08:49:34;;;;;;;11.38;7.63;;;23.80;99.90;;;;;;5050761;28;20041;-77
2023/05/14 08:52:00;;;;;;;10.15;7.70;;;24.10;99.90;;;;;;5053598;28;20112;-77
2023/05/14 08:54:27;;;;;;;12.90;7.38;;;24.00;99.90;;;;;;5036850;28;20080;-77
2023/05/14 08:56:53;;;;;;;14.13;7.57;;;23.80;99.90;;;;;;5034258;28;20441;-77
2023/05/14 08:59:19;;;;;;;11.43;7.30;;;23.60;99.90;;;;;;5017960;28;20124;-78
2023/05/14 09:01:51;;;;;;;9.80;6.95;;;23.60;99.90;;;;;;5048691;28;20462;-77
2023/05/14 09:04:22;;;;;;;10.37;7.10;;;23.60;99.90;;;;;;5042135;28;20048;-77
2023/05/14 09:06:50;;;;;;;10.20;7.50;;;23.50;99.90;;;;;;5035907;28;20071;-77
2023/05/14 09:09:16;;;;;;;10.13;6.60;;;23.70;99.90;;;;;;5060998;28;20044;-77
2023/05/14 09:11:45;;;;;;;8.80;6.57;;;24.00;99.90;;;;;;5034545;28;20079;-77
2023/05/14 09:14:11;;;;;;;10.30;6.20;;;24.50;99.90;;;;;;5060632;28;20034;-77
2023/05/14 09:16:38;;;;;;;10.32;6.80;;;24.80;99.90;;;;;;5045173;28;20074;-77
2023/05/14 09:19:04;;;;;;;10.20;6.15;;;25.10;87.40;;;;;;5039452;28;20036;-76
2023/05/14 09:21:30;;;;;;;6.22;5.40;;;25.20;94.30;;;;;;5041196;28;20037;-76
2023/05/14 09:23:56;;;;;;;9.70;6.57;;;25.40;84.10;;;;;;5061647;28;20072;-76
2023/05/14 09:26:27;;;;;;;7.22;5.47;;;25.60;88.90;;;;;;5052437;28;20032;-76
2023/05/14 09:29:00;;;;;;;9.00;6.60;;;25.70;76.50;;;;;;5053735;28;20124;-76
2023/05/14 09:31:30;;;;;;;9.65;5.68;;;25.80;82.60;;;;;;5047156;28;20049;-76
2023/05/14 09:33:56;;;;;;;9.02;6.10;;;26.00;80.30;;;;;;5049663;28;20049;-76
2023/05/14 09:36:23;;;;;;;9.68;6.50;;;26.00;81.20;;;;;;5052115;28;20506;-76
2023/05/14 09:38:49;;;;;;;11.45;6.50;;;26.00;84.70;;;;;;5038553;28;20040;-75
2023/05/14 09:41:19;;;;;;;8.07;5.78;;;26.10;80.60;;;;;;5053612;28;20045;-75
2023/05/14 09:43:45;;;;;;;8.23;5.72;;;26.20;80.90;;;;;;5041700;28;20040;-75
2023/05/14 09:46:11;;;;;;;8.25;5.82;;;26.40;78.30;;;;;;5041329;28;20475;-75
2023/05/14 09:48:39;;;;;;;9.13;5.45;;;26.40;72.30;;;;;;5035169;28;20534;-75
2023/05/14 09:51:05;;;;;;;7.75;5.57;;;26.40;76.70;;;;;;5061220;28;20045;-76
2023/05/14 09:53:32;;;;;;;8.32;5.43;;;26.60;75.60;;;;;;5049844;28;20045;-75
2023/05/14 09:55:57;;;;;;;8.40;5.50;;;26.70;71.70;;;;;;5039925;28;20133;-76
2023/05/14 09:58:29;;;;;;;7.63;5.32;;;26.70;72.00;;;;;;5033818;28;20123;-77
2023/05/14 10:01:01;;;;;;;7.78;5.07;;;26.80;70.20;;;;;;5041645;28;20113;-78
2023/05/14 10:03:29;;;;;;;6.95;5.18;;;26.70;66.20;;;;;;5024402;28;20486;-77
2023/05/14 10:06:02;;;;;;;8.68;5.22;;;26.40;69.00;;;;;;5043706;28;20191;-77
2023/05/14 10:08:37;;;;;;;6.32;4.78;;;26.30;68.10;;;;;;5054054;28;20131;-78
2023/05/14 10:11:19;;;;;;;9.30;5.72;;;26.50;62.50;;;;;;5021782;28;20048;-77
2023/05/14 10:14:17;;;;;;;8.45;4.45;;;26.30;66.30;;;;;;5054878;28;20041;-77
2023/05/14 10:17:01;;;;;;;10.63;5.13;;;26.60;68.10;;;;;;5055049;28;20040;-77
2023/05/14 10:20:01;;;;;;;7.70;5.03;;;26.90;64.40;;;;;;5051320;28;20398;-78
2023/05/14 10:22:35;;;;;;;6.72;4.80;;;27.10;62.50;;;;;;5019256;28;20052;-81
2023/05/14 10:25:05;;;;;;;7.78;5.28;;;27.30;63.80;;;;;;5051101;28;20087;-79
2023/05/14 10:27:32;;;;;;;8.25;4.88;;;27.60;57.60;;;;;;5036651;28;20040;-82
2023/05/14 10:30:00;;;;;;;8.00;4.60;;;27.50;56.80;;;;;;5036427;28;20045;-80
2023/05/14 10:32:27;;;;;;;6.65;4.78;;;27.30;55.90;;;;;;5031301;28;20048;-79
2023/05/14 10:34:53;;;;;;;6.15;4.38;;;27.00;55.30;;;;;;5040892;28;20041;-79
2023/05/14 10:37:24;;;;;;;6.90;4.82;;;26.70;59.50;;;;;;5030140;28;20040;-79
2023/05/14 10:39:55;;;;;;;8.07;4.82;;;27.00;62.70;;;;;;5035296;28;20076;-79
2023/05/14 10:42:38;;;;;;;8.43;4.78;;;27.30;61.60;;;;;;5033906;28;20032;-79
2023/05/14 10:45:07;;;;;;;7.03;3.97;;;27.50;57.40;;;;;;5048898;28;20106;-79
2023/05/14 10:47:41;;;;;;;5.80;4.68;;;27.60;53.60;;;;;;5031066;28;20048;-77
2023/05/14 10:50:16;;;;;;;8.80;4.80;;;27.10;55.60;;;;;;5015601;28;20063;-78
2023/05/14 10:52:45;;;;;;;5.38;4.13;;;26.80;58.60;;;;;;5017181;28;20048;-79
2023/05/14 10:55:18;;;;;;;8.02;4.68;;;26.90;54.10;;;;;;5037671;28;20165;-79
2023/05/14 10:57:45;;;;;;;5.85;4.47;;;26.40;57.00;;;;;;5044316;28;20044;-78
2023/05/14 11:00:15;;;;;;;8.35;4.63;;;26.30;57.20;;;;;;5035454;28;20099;-79
2023/05/14 11:02:43;;;;;;;8.13;4.70;;;26.40;59.90;;;;;;5043733;28;20049;-79
2023/05/14 11:05:12;;;;;;;7.72;4.78;;;26.60;62.60;;;;;;5048371;28;20032;-78
2023/05/14 11:07:44;;;;;;;6.90;4.20;;;27.00;64.10;;;;;;5036621;28;20032;-79
2023/05/14 11:10:29;;;;;;;7.13;4.30;;;27.40;60.50;;;;;;5037725;28;20495;-79
2023/05/14 11:12:58;;;;;;;6.22;4.25;;;27.60;61.10;;;;;;5049324;28;20036;-79
2023/05/14 11:15:30;;;;;;;6.40;3.95;;;27.80;53.40;;;;;;5049075;28;20036;-79
2023/05/14 11:17:58;;;;;;;7.80;5.00;;;27.10;54.30;;;;;;5037003;28;20116;-78
2023/05/14 11:20:32;;;;;;;6.00;4.30;;;26.50;59.40;;;;;;5037904;28;20485;-79
2023/05/14 11:22:59;;;;;;;7.30;4.10;;;26.40;57.40;;;;;;5039808;28;20036;-80
2023/05/14 11:25:27;;;;;;;7.25;4.50;;;26.20;55.10;;;;;;5046328;28;20116;-79
2023/05/14 11:27:57;;;;;;;5.32;3.88;;;26.20;57.10;;;;;;5047067;28;20045;-79
2023/05/14 11:30:25;;;;;;;6.97;4.47;;;26.40;60.40;;;;;;5036440;28;20190;-78
2023/05/14 11:32:53;;;;;;;5.82;4.07;;;26.80;62.20;;;;;;5021329;28;20041;-79
2023/05/14 11:35:45;;;;;;;6.75;4.20;;;27.30;59.70;;;;;;5040373;28;20033;-80
2023/05/14 11:38:20;;;;;;;7.28;4.07;;;27.70;52.60;;;;;;5031043;28;20034;-79
2023/05/14 11:41:14;;;;;;;11.80;4.22;;;27.40;59.90;;;;;;5066761;28;20040;-79
2023/05/14 11:43:45;;;;;;;7.75;3.90;;;27.60;58.50;;;;;;5043777;28;20044;-81
2023/05/14 11:46:24;;;;;;;7.38;3.88;;;27.80;55.50;;;;;;5029810;28;20040;-80
2023/05/14 11:48:51;;;;;;;6.93;4.40;;;27.60;51.80;;;;;;5059219;28;20090;-79
2023/05/14 11:51:37;;;;;;;6.22;4.07;;;27.10;52.60;;;;;;5051272;28;20040;-79
2023/05/14 11:54:18;;;;;;;6.82;4.32;;;26.60;54.90;;;;;;5056797;28;20065;-79
2023/05/14 11:56:54;;;;;;;6.68;4.70;;;26.50;56.00;;;;;;5033830;28;20036;-79
2023/05/14 11:59:41;;;;;;;7.85;4.30;;;26.90;58.10;;;;;;5031717;28;20377;-79
2023/05/14 12:02:10;;;;;;;7.13;4.25;;;27.00;61.30;;;;;;5018193;28;20498;-79
2023/05/14 12:04:44;;;;;;;9.02;4.53;;;27.20;58.90;;;;;;5037071;28;20040;-79
2023/05/14 12:07:20;;;;;;;9.60;4.82;;;27.60;58.70;;;;;;5037110;28;20044;-79
2023/05/14 12:09:48;;;;;;;8.40;4.50;;;27.90;55.00;;;;;;5039757;28;20045;-80
2023/05/14 12:12:23;;;;;;;10.00;4.57;;;27.60;57.30;;;;;;5045758;28;20040;-79
2023/05/14 12:14:59;;;;;;;8.30;4.30;;;27.50;55.20;;;;;;5036151;28;20224;-78
2023/05/14 12:17:28;;;;;;;5.80;4.05;;;27.20;57.20;;;;;;5033894;28;20147;-79
2023/05/14 12:19:57;;;;;;;6.47;4.20;;;27.40;58.50;;;;;;5045475;28;20028;-78
2023/05/14 12:22:23;;;;;;;6.40;4.30;;;27.90;57.10;;;;;;5047171;28;20033;-78
2023/05/14 12:24:54;;;;;;;6.88;4.22;;;28.40;61.50;;;;;;5045385;28;20083;-78
2023/05/14 12:27:31;;;;;;;6.70;3.80;;;29.00;56.40;;;;;;5042970;28;20041;-78
2023/05/14 12:30:07;;;;;;;6.05;4.03;;;29.20;53.70;;;;;;5045147;28;20403;-78
2023/05/14 12:32:38;;;;;;;7.40;3.80;;;29.40;57.40;;;;;;5054375;28;20036;-79
2023/05/14 12:35:05;;;;;;;6.38;4.22;;;29.70;50.90;;;;;;5055391;28;20041;-79
2023/05/14 12:37:32;;;;;;;9.98;4.25;;;29.40;52.90;;;;;;5034103;28;20033;-79
2023/05/14 12:39:59;;;;;;;9.27;4.00;;;29.30;51.60;;;;;;5049120;28;20080;-79
2023/05/14 12:42:35;;;;;;;7.78;4.15;;;29.30;47.80;;;;;;5051539;28;20033;-79
2023/05/14 12:45:04;;;;;;;9.75;4.35;;;28.80;52.70;;;;;;5044048;28;20038;-78
2023/05/14 12:47:31;;;;;;;6.00;3.30;;;28.50;55.60;;;;;;5031819;28;20051;-79
2023/05/14 12:49:57;;;;;;;5.22;3.00;;;28.30;51.90;;;;;;5044748;28;20085;-79
2023/05/14 12:52:24;;;;;;;2.88;2.47;;;28.20;48.80;;;;;;5033900;28;20073;-79
2023/05/14 12:54:50;;;;;;;4.57;3.35;;;27.70;46.80;;;;;;5027763;28;20522;-76
2023/05/14 12:57:16;;;;;;;6.40;4.05;;;27.00;48.60;;;;;;5032420;28;20037;-77
2023/05/14 12:59:41;;;;;;;6.95;3.80;;;26.40;49.20;;;;;;5029972;28;20643;-77